Time;durP1;ratioP1;P1;durP2;ratioP2;P2;SDS_P1;SDS_P2;PMS_P1;PMS_P2;Temp;Humidity;BMP_temperature;BMP_pressure;BME280_temperature;BME280_humidity;BME280_pressure;Samples;Min_cycle;Max_cycle;Signal;HPM_P1;HPM_P2
2024/02/02 00:00:54;37661.00;0.13;65.84;0.00;0.00;0.62;;;;;9.80;1.00;;;;;;2268168;61;1133;-87
2024/02/02 00:03:22;17029.00;0.06;30.12;0.00;0.00;0.62;;;;;9.40;1.00;;;;;;2268179;61;1377;-91
2024/02/02 00:05:49;27765.00;0.09;48.71;0.00;0.00;0.62;;;;;9.50;1.00;;;;;;2268097;61;1677;-86
2024/02/02 00:08:16;11553.00;0.04;20.64;0.00;0.00;0.62;;;;;9.90;1.00;;;;;;2267979;61;2209;-88
2024/02/02 00:10:43;8271.00;0.03;14.95;0.00;0.00;0.62;;;;;10.00;1.00;;;;;;2268097;61;1707;-88
2024/02/02 00:13:10;96091.00;0.32;166.82;0.00;0.00;0.62;;;;;10.10;1.00;;;;;;2268176;61;1367;-87
2024/02/02 00:15:37;64132.00;0.21;111.62;0.00;0.00;0.62;;;;;9.60;1.00;;;;;;2267951;61;1750;-86
2024/02/02 00:18:05;159489.00;0.53;276.16;0.00;0.00;0.62;;;;;9.10;1.00;;;;;;2268094;61;1035;-87
2024/02/02 00:20:33;51901.00;0.17;90.47;0.00;0.00;0.62;;;;;9.10;1.00;;;;;;2268027;61;1730;-86
2024/02/02 00:23:00;103357.00;0.34;179.37;0.00;0.00;0.62;;;;;8.50;1.50;;;;;;2268140;61;1302;-87
2024/02/02 00:25:28;36393.00;0.12;63.65;0.00;0.00;0.62;;;;;8.60;3.50;;;;;;2268152;61;1065;-86
2024/02/02 00:27:55;38508.00;0.13;67.31;0.00;0.00;0.62;;;;;8.80;2.00;;;;;;2267935;61;2001;-87
2024/02/02 00:30:22;16378.00;0.05;29.00;0.00;0.00;0.62;;;;;9.70;2.80;;;;;;2268111;61;1040;-86
2024/02/02 00:32:49;101931.00;0.34;176.90;0.00;0.00;0.62;;;;;9.80;1.00;;;;;;2267970;61;1364;-88
2024/02/02 00:35:16;20355.00;0.07;35.88;0.00;0.00;0.62;;;;;9.80;1.00;;;;;;2268047;61;1727;-87
2024/02/02 00:37:46;33284.00;0.11;58.27;0.00;0.00;0.62;;;;;9.60;1.00;;;;;;2268063;61;1004;-87
2024/02/02 00:40:14;41506.00;0.14;72.49;0.00;0.00;0.62;;;;;9.50;1.00;;;;;;2267887;61;1134;-87
2024/02/02 00:42:42;73397.00;0.24;127.63;0.00;0.00;0.62;;;;;10.00;1.00;;;;;;2268034;61;1573;-88
2024/02/02 00:45:09;13880.00;0.05;24.67;0.00;0.00;0.62;;;;;10.70;1.00;;;;;;2268036;61;2372;-89
2024/02/02 00:47:38;89658.00;0.30;155.72;0.00;0.00;0.62;;;;;10.90;1.00;;;;;;2267966;61;2002;-87
2024/02/02 00:50:06;33774.00;0.11;59.12;0.00;0.00;0.62;;;;;11.00;1.00;;;;;;2268049;61;1088;-88
2024/02/02 00:52:33;59320.00;0.20;103.30;0.00;0.00;0.62;;;;;11.20;1.00;;;;;;2268031;61;1373;-86
2024/02/02 00:55:02;49705.00;0.17;86.68;0.00;0.00;0.62;;;;;11.30;1.00;;;;;;2267996;61;922;-89
2024/02/02 00:57:30;38557.00;0.13;67.39;0.00;0.00;0.62;;;;;11.80;1.00;;;;;;2267955;61;1092;-89
2024/02/02 00:59:57;71769.00;0.24;124.82;0.00;0.00;0.62;;;;;12.00;1.00;;;;;;2267956;61;934;-86
2024/02/02 01:02:24;28129.00;0.09;49.34;0.00;0.00;0.62;;;;;11.90;1.00;;;;;;2267922;61;2056;-87
2024/02/02 01:04:51;40556.00;0.14;70.85;0.00;0.00;0.62;;;;;12.10;1.00;;;;;;2267999;61;1099;-89
2024/02/02 01:07:17;32561.00;0.11;57.02;0.00;0.00;0.62;;;;;12.10;1.00;;;;;;2267904;61;1998;-87
2024/02/02 01:09:45;4053.00;0.01;7.64;0.00;0.00;0.62;;;;;12.10;1.00;;;;;;2267867;61;1070;-88
2024/02/02 01:12:14;247214.00;0.82;427.16;0.00;0.00;0.62;;;;;12.40;1.00;;;;;;2267851;61;1364;-87
2024/02/02 01:14:41;161366.00;0.54;279.39;39893.00;0.13;69.70;;;;;12.00;1.00;;;;;;2267975;61;1146;-88
2024/02/02 01:17:08;25911.00;0.09;45.50;0.00;0.00;0.62;;;;;11.90;1.00;;;;;;2267921;61;1160;-87
2024/02/02 01:19:36;96043.00;0.32;166.74;0.00;0.00;0.62;;;;;11.80;1.00;;;;;;2267954;61;1106;-88
2024/02/02 01:22:04;71405.00;0.24;124.19;0.00;0.00;0.62;;;;;11.80;1.00;;;;;;2268018;61;1296;-87
2024/02/02 01:24:31;47533.00;0.16;82.92;0.00;0.00;0.62;;;;;11.90;1.00;;;;;;2267894;61;959;-88
2024/02/02 01:26:59;26805.00;0.09;47.05;0.00;0.00;0.62;;;;;11.00;1.00;;;;;;2267929;61;1928;-88
2024/02/02 01:29:29;102281.00;0.34;177.51;21384.00;0.07;37.67;;;;;10.50;1.00;;;;;;2267846;61;1081;-87
2024/02/02 01:31:56;190862.00;0.64;330.19;0.00;0.00;0.62;;;;;10.30;1.00;;;;;;2267844;61;1376;-87
2024/02/02 01:34:23;103117.00;0.34;178.95;0.00;0.00;0.62;;;;;9.70;1.00;;;;;;2267943;61;1100;-86
2024/02/02 01:36:51;86515.00;0.29;150.29;0.00;0.00;0.62;;;;;8.90;1.00;;;;;;2268003;61;1024;-88
2024/02/02 01:39:18;0.00;0.00;0.62;0.00;0.00;0.62;;;;;8.70;1.00;;;;;;2267946;61;940;-86
2024/02/02 01:41:46;76985.00;0.26;133.83;0.00;0.00;0.62;;;;;9.00;1.00;;;;;;2267840;61;1361;-86
2024/02/02 01:44:14;218195.00;0.73;377.24;0.00;0.00;0.62;;;;;9.00;1.00;;;;;;2267903;61;1572;-86
2024/02/02 01:46:47;62972.00;0.21;109.61;0.00;0.00;0.62;;;;;9.30;1.00;;;;;;2267842;61;1044;-88
2024/02/02 01:49:14;157163.00;0.52;272.15;44936.00;0.15;78.43;;;;;9.60;1.00;;;;;;2267725;61;1752;-87
2024/02/02 01:51:41;97104.00;0.32;168.57;0.00;0.00;0.62;;;;;9.30;1.00;;;;;;2268081;61;1302;-87
2024/02/02 01:54:09;52674.00;0.18;91.81;0.00;0.00;0.62;;;;;8.60;1.00;;;;;;2268545;61;1649;-88
2024/02/02 01:56:37;24900.00;0.08;43.75;0.00;0.00;0.62;;;;;8.70;1.00;;;;;;2268552;61;1420;-87
2024/02/02 01:59:07;68707.00;0.23;119.53;0.00;0.00;0.62;;;;;9.40;1.00;;;;;;2268545;61;1046;-87
2024/02/02 02:01:35;50586.00;0.17;88.20;0.00;0.00;0.62;;;;;9.30;1.00;;;;;;2268458;61;2107;-86
2024/02/02 02:04:04;67425.00;0.22;117.31;0.00;0.00;0.62;;;;;9.20;1.00;;;;;;2268455;61;1616;-86
2024/02/02 02:06:31;200353.00;0.67;346.53;0.00;0.00;0.62;;;;;9.40;1.00;;;;;;2268590;61;1594;-88
2024/02/02 02:08:58;104397.00;0.35;181.16;0.00;0.00;0.62;;;;;9.20;1.00;;;;;;2273068;40;3444;-86
2024/02/02 02:11:26;52700.00;0.18;91.86;0.00;0.00;0.62;;;;;9.00;1.00;;;;;;2272425;61;1766;-86
2024/02/02 02:13:54;110332.00;0.37;191.40;0.00;0.00;0.62;;;;;9.30;1.00;;;;;;2272585;61;1383;-87
2024/02/02 02:16:21;68861.00;0.23;119.79;0.00;0.00;0.62;;;;;9.60;1.00;;;;;;2272558;61;1155;-88
2024/02/02 02:18:47;45811.00;0.15;79.94;0.00;0.00;0.62;;;;;9.50;1.00;;;;;;2272612;61;1094;-86
2024/02/02 02:21:26;69242.00;0.23;120.45;0.00;0.00;0.62;;;;;9.70;1.00;;;;;;2272616;61;1127;-88
2024/02/02 02:23:53;180195.00;0.60;311.83;57574.00;0.19;100.28;;;;;9.60;1.00;;;;;;2272421;61;1369;-87
2024/02/02 02:26:20;106910.00;0.36;185.50;0.00;0.00;0.62;;;;;10.00;1.00;;;;;;2272524;61;1122;-87
2024/02/02 02:28:48;29055.00;0.10;50.95;0.00;0.00;0.62;;;;;10.50;1.00;;;;;;2272478;61;1992;-87
2024/02/02 02:31:18;21926.00;0.07;38.61;0.00;0.00;0.62;;;;;10.50;1.00;;;;;;2272394;61;1660;-87
2024/02/02 02:33:46;38372.00;0.13;67.07;0.00;0.00;0.62;;;;;10.70;1.00;;;;;;2272476;61;1374;-88
2024/02/02 02:36:14;46578.00;0.16;81.27;0.00;0.00;0.62;;;;;10.50;1.00;;;;;;2272551;61;1785;-87
2024/02/02 02:38:44;26185.00;0.09;45.98;0.00;0.00;0.62;;;;;10.60;1.00;;;;;;2272460;61;1457;-88
2024/02/02 02:41:11;6724.00;0.02;12.27;0.00;0.00;0.62;;;;;10.70;1.00;;;;;;2272495;61;1110;-88
2024/02/02 02:43:38;311461.00;1.04;537.62;0.00;0.00;0.62;;;;;11.20;1.00;;;;;;2272378;61;1587;-88
2024/02/02 02:46:06;18680.00;0.06;32.98;0.00;0.00;0.62;;;;;11.40;1.00;;;;;;2272371;61;1084;-89
2024/02/02 02:48:33;40286.00;0.13;70.38;0.00;0.00;0.62;;;;;11.70;1.00;;;;;;2272490;61;1915;-86
2024/02/02 02:51:00;100643.00;0.34;174.68;0.00;0.00;0.62;;;;;11.80;1.00;;;;;;2272516;61;1010;-87
2024/02/02 02:53:28;44408.00;0.15;77.51;0.00;0.00;0.62;;;;;12.00;1.00;;;;;;2268668;61;1387;-87
2024/02/02 02:55:57;994.00;0.00;2.34;0.00;0.00;0.62;;;;;12.00;1.00;;;;;;2272521;61;1137;-86
2024/02/02 02:58:24;90924.00;0.30;157.90;0.00;0.00;0.62;;;;;11.80;1.00;;;;;;2272363;61;1110;-87
2024/02/02 03:00:53;75804.00;0.25;131.79;0.00;0.00;0.62;;;;;11.50;1.00;;;;;;2272311;61;1123;-88
2024/02/02 03:03:20;122904.00;0.41;213.09;0.00;0.00;0.62;;;;;11.50;1.00;;;;;;2272101;61;1572;-87
2024/02/02 03:05:47;25000.00;0.08;43.93;0.00;0.00;0.62;;;;;11.60;1.00;;;;;;2272389;61;1911;-88
2024/02/02 03:08:14;88358.00;0.29;153.47;0.00;0.00;0.62;;;;;11.70;1.00;;;;;;2272395;61;1998;-88
2024/02/02 03:10:41;113939.00;0.38;197.63;0.00;0.00;0.62;;;;;11.80;1.00;;;;;;2272511;61;965;-89
2024/02/02 03:13:10;132414.00;0.44;229.49;0.00;0.00;0.62;;;;;11.30;1.00;;;;;;2272291;61;2308;-87
2024/02/02 03:15:39;20411.00;0.07;35.98;0.00;0.00;0.62;;;;;10.70;1.00;;;;;;2272371;61;1079;-87
2024/02/02 03:18:07;92480.00;0.31;160.59;0.00;0.00;0.62;;;;;10.50;1.00;;;;;;2272338;61;1120;-87
2024/02/02 03:20:34;40088.00;0.13;70.04;0.00;0.00;0.62;;;;;10.10;1.00;;;;;;2272396;61;1092;-87
2024/02/02 03:23:01;27945.00;0.09;49.03;0.00;0.00;0.62;;;;;9.90;1.00;;;;;;2272243;61;2198;-86
2024/02/02 03:25:28;23621.00;0.08;41.54;0.00;0.00;0.62;;;;;9.30;1.00;;;;;;2272327;61;934;-88
2024/02/02 03:27:55;166888.00;0.56;288.91;0.00;0.00;0.62;;;;;9.10;1.00;;;;;;2272330;61;1923;-86
2024/02/02 03:30:26;65565.00;0.22;114.10;0.00;0.00;0.62;;;;;9.20;1.00;;;;;;2272314;61;1083;-87
2024/02/02 03:32:53;6437.00;0.02;11.78;0.00;0.00;0.62;;;;;9.50;1.00;;;;;;2272365;61;1489;-87
2024/02/02 03:35:20;18190.00;0.06;32.14;0.00;0.00;0.62;;;;;9.20;1.00;;;;;;2272356;61;1136;-86
2024/02/02 03:37:47;159409.00;0.53;276.02;0.00;0.00;0.62;;;;;8.60;1.00;;;;;;2272262;61;1522;-87
2024/02/02 03:40:14;15842.00;0.05;28.07;0.00;0.00;0.62;;;;;8.50;1.00;;;;;;2272292;61;1411;-87
2024/02/02 03:42:41;9422.00;0.03;16.95;0.00;0.00;0.62;;;;;9.00;1.00;;;;;;2272244;61;1359;-87
2024/02/02 03:45:09;117074.00;0.39;203.03;0.00;0.00;0.62;;;;;9.30;1.00;;;;;;2272345;61;1069;-88
2024/02/02 03:47:38;30239.00;0.10;53.00;0.00;0.00;0.62;;;;;10.10;1.00;;;;;;2272217;61;1914;-87
2024/02/02 03:50:05;47169.00;0.16;82.29;0.00;0.00;0.62;;;;;10.40;1.00;;;;;;2272295;61;1019;-88
2024/02/02 03:52:32;50298.00;0.17;87.70;0.00;0.00;0.62;;;;;10.40;1.00;;;;;;2272274;61;1285;-88
2024/02/02 03:54:59;44913.00;0.15;78.39;0.00;0.00;0.62;;;;;10.20;1.00;;;;;;2272301;61;1110;-88
2024/02/02 03:57:26;106384.00;0.35;184.59;0.00;0.00;0.62;;;;;10.10;1.00;;;;;;2272255;61;1109;-87
2024/02/02 03:59:53;88069.00;0.29;152.97;0.00;0.00;0.62;;;;;10.20;1.00;;;;;;2272275;61;1127;-86
2024/02/02 04:02:21;5580.00;0.02;10.29;0.00;0.00;0.62;;;;;10.20;1.00;;;;;;2272244;61;1404;-87
2024/02/02 04:04:49;6664.00;0.02;12.17;0.00;0.00;0.62;;;;;10.10;1.00;;;;;;2272279;61;1032;-88
2024/02/02 04:07:17;7465.00;0.02;13.56;0.00;0.00;0.62;;;;;10.40;1.00;;;;;;2272224;61;1024;-84
2024/02/02 04:09:44;152610.00;0.51;264.31;0.00;0.00;0.62;;;;;10.30;1.00;;;;;;2272051;61;2009;-87
2024/02/02 04:12:10;17728.00;0.06;31.34;0.00;0.00;0.62;;;;;10.40;1.00;;;;;;2272234;61;1353;-88
2024/02/02 04:14:37;253.00;0.00;1.06;0.00;0.00;0.62;;;;;10.50;1.00;;;;;;2272118;61;1449;-87
2024/02/02 04:17:05;53388.00;0.18;93.05;0.00;0.00;0.62;;;;;10.20;1.00;;;;;;2272214;61;990;-87
2024/02/02 04:19:32;46980.00;0.16;81.96;0.00;0.00;0.62;;;;;10.20;1.00;;;;;;2272163;61;2211;-88
2024/02/02 04:22:00;80857.00;0.27;140.52;0.00;0.00;0.62;;;;;10.50;1.00;;;;;;2272159;61;1384;-87
2024/02/02 04:24:27;43520.00;0.15;75.98;0.00;0.00;0.62;;;;;10.70;1.00;;;;;;2272113;61;1154;-87
2024/02/02 04:26:54;210108.00;0.70;363.32;0.00;0.00;0.62;;;;;10.50;1.00;;;;;;2272054;61;1471;-87
2024/02/02 04:29:21;27916.00;0.09;48.98;0.00;0.00;0.62;;;;;10.20;1.00;;;;;;2272112;61;2012;-86
2024/02/02 04:31:48;34606.00;0.12;60.55;0.00;0.00;0.62;;;;;10.10;1.00;;;;;;2272033;61;1737;-87
2024/02/02 04:34:15;53336.00;0.18;92.96;0.00;0.00;0.62;;;;;10.00;1.00;;;;;;2272034;61;1512;-87
2024/02/02 04:36:42;26695.00;0.09;46.86;0.00;0.00;0.62;;;;;10.20;1.00;;;;;;2271989;61;1073;-88
2024/02/02 04:39:11;75664.00;0.25;131.55;0.00;0.00;0.62;;;;;10.20;1.00;;;;;;2272090;61;1030;-86
2024/02/02 04:41:38;104587.00;0.35;181.49;0.00;0.00;0.62;;;;;9.90;1.00;;;;;;2272022;61;1288;-86
2024/02/02 04:44:05;2955.00;0.01;5.74;0.00;0.00;0.62;;;;;9.50;1.00;;;;;;2272208;61;1165;-88
2024/02/02 04:46:32;185399.00;0.62;320.79;36712.00;0.12;64.20;;;;;9.40;1.00;;;;;;2272153;61;1083;-87
2024/02/02 04:48:59;141513.00;0.47;245.18;0.00;0.00;0.62;;;;;9.40;1.00;;;;;;2272005;61;2000;-84
2024/02/02 04:51:26;115204.00;0.38;199.81;0.00;0.00;0.62;;;;;9.60;1.00;;;;;;2272077;61;1083;-87
2024/02/02 04:53:53;141254.00;0.47;244.73;23506.00;0.08;41.34;;;;;9.70;1.00;;;;;;2272053;61;1384;-88
2024/02/02 04:56:22;48024.00;0.16;83.77;0.00;0.00;0.62;;;;;10.10;1.00;;;;;;2272106;61;1100;-86
2024/02/02 04:58:51;12714.00;0.04;22.65;0.00;0.00;0.62;;;;;10.20;1.00;;;;;;2272060;61;1115;-87
2024/02/02 05:01:19;148.00;0.00;0.88;0.00;0.00;0.62;;;;;10.30;1.00;;;;;;2271909;61;968;-87
2024/02/02 05:03:46;125215.00;0.42;217.08;0.00;0.00;0.62;;;;;10.50;1.00;;;;;;2272146;61;1269;-86
2024/02/02 05:06:16;20374.00;0.07;35.92;0.00;0.00;0.62;;;;;10.80;1.00;;;;;;2272068;61;994;-87
2024/02/02 05:08:43;16957.00;0.06;30.00;0.00;0.00;0.62;;;;;10.80;1.00;;;;;;2271992;61;2015;-86
2024/02/02 05:11:11;12438.00;0.04;22.17;0.00;0.00;0.62;;;;;10.80;1.00;;;;;;2271993;61;1126;-87
2024/02/02 05:13:39;179919.00;0.60;311.35;0.00;0.00;0.62;;;;;10.80;1.00;;;;;;2272036;61;1419;-86
2024/02/02 05:16:07;72219.00;0.24;125.59;0.00;0.00;0.62;;;;;11.00;1.00;;;;;;2271895;61;1534;-87
2024/02/02 05:18:34;30814.00;0.10;53.99;0.00;0.00;0.62;;;;;10.70;1.00;;;;;;2271974;61;993;-87
2024/02/02 05:21:01;4995.00;0.02;9.28;0.00;0.00;0.62;;;;;10.70;1.00;;;;;;2271982;61;1739;-86
2024/02/02 05:23:28;48665.00;0.16;84.88;0.00;0.00;0.62;;;;;10.60;1.00;;;;;;2271918;61;1503;-85
2024/02/02 05:25:55;70890.00;0.24;123.30;0.00;0.00;0.62;;;;;10.70;1.00;;;;;;2271950;61;1077;-87
2024/02/02 05:28:22;17455.00;0.06;30.86;0.00;0.00;0.62;;;;;10.10;1.00;;;;;;2272628;61;2008;-88
2024/02/02 05:30:50;52528.00;0.18;91.56;0.00;0.00;0.62;;;;;10.00;1.00;;;;;;2272826;61;884;-87
2024/02/02 05:33:17;54818.00;0.18;95.52;0.00;0.00;0.62;;;;;9.80;1.00;;;;;;2272721;61;1299;-87
2024/02/02 05:35:44;16973.00;0.06;30.03;0.00;0.00;0.62;;;;;9.70;1.00;;;;;;2272594;61;1624;-87
2024/02/02 05:38:11;83974.00;0.28;145.90;0.00;0.00;0.62;;;;;9.90;1.00;;;;;;2272651;61;1081;-88
2024/02/02 05:40:38;7316.00;0.02;13.30;0.00;0.00;0.62;;;;;9.90;1.00;;;;;;2272590;61;923;-86
2024/02/02 05:43:05;99439.00;0.33;172.60;0.00;0.00;0.62;;;;;10.00;1.00;;;;;;2272719;61;1432;-87
2024/02/02 05:45:32;36644.00;0.12;64.08;0.00;0.00;0.62;;;;;10.30;1.00;;;;;;2272635;61;1118;-86
2024/02/02 05:48:00;33629.00;0.11;58.86;0.00;0.00;0.62;;;;;10.50;1.00;;;;;;2272724;61;1019;-87
2024/02/02 05:50:27;15480.00;0.05;27.44;0.00;0.00;0.62;;;;;10.50;1.00;;;;;;2272678;61;1125;-88
2024/02/02 05:52:54;11619.00;0.04;20.75;0.00;0.00;0.62;;;;;10.50;1.00;;;;;;2272709;61;1292;-88
2024/02/02 05:55:21;20663.00;0.07;36.42;0.00;0.00;0.62;;;;;10.20;1.00;;;;;;2272542;61;1535;-87
2024/02/02 05:57:48;36929.00;0.12;64.57;0.00;0.00;0.62;;;;;10.10;1.00;;;;;;2272658;61;1004;-87
2024/02/02 06:00:18;15785.00;0.05;27.97;0.00;0.00;0.62;;;;;10.30;1.00;;;;;;2272595;61;1106;-87
2024/02/02 06:02:45;47310.00;0.16;82.53;0.00;0.00;0.62;;;;;10.50;1.00;;;;;;2272693;61;1392;-88
2024/02/02 06:05:13;17966.00;0.06;31.75;0.00;0.00;0.62;;;;;11.10;1.00;;;;;;2272696;61;1132;-88
2024/02/02 06:07:40;43138.00;0.14;75.32;0.00;0.00;0.62;;;;;11.50;1.00;;;;;;2272620;61;1056;-87
2024/02/02 06:10:08;119805.00;0.40;207.75;0.00;0.00;0.62;;;;;11.50;1.00;;;;;;2272652;61;1932;-88
2024/02/02 06:12:36;72503.00;0.24;126.09;0.00;0.00;0.62;;;;;11.80;1.00;;;;;;2272633;61;1265;-89
2024/02/02 06:15:04;147443.00;0.49;255.40;35911.00;0.12;62.81;;;;;12.00;1.00;;;;;;2272598;61;1549;-89
2024/02/02 06:17:31;31969.00;0.11;55.99;0.00;0.00;0.62;;;;;12.20;1.00;;;;;;2272680;61;1032;-89
2024/02/02 06:19:58;102287.00;0.34;177.52;0.00;0.00;0.62;;;;;12.30;1.00;;;;;;2272621;61;1503;-88
2024/02/02 06:22:26;34722.00;0.12;60.76;0.00;0.00;0.62;;;;;12.50;1.00;;;;;;2272592;61;1356;-88
2024/02/02 06:24:53;2016.00;0.01;4.11;0.00;0.00;0.62;;;;;12.60;1.00;;;;;;2272680;61;1131;-89
2024/02/02 06:27:22;144322.00;0.48;250.02;0.00;0.00;0.62;;;;;12.60;1.00;;;;;;2272660;61;963;-88
2024/02/02 06:29:50;10272.00;0.03;18.42;0.00;0.00;0.62;;;;;12.60;1.00;;;;;;2272542;61;1911;-89
2024/02/02 06:32:20;21173.00;0.07;37.30;0.00;0.00;0.62;;;;;12.30;1.00;;;;;;2272638;61;1412;-88
2024/02/02 06:34:48;24854.00;0.08;43.67;0.00;0.00;0.62;;;;;11.80;1.00;;;;;;2272615;61;1588;-88
2024/02/02 06:37:15;17005.00;0.06;30.08;0.00;0.00;0.62;;;;;11.60;1.00;;;;;;2272639;61;2219;-87
2024/02/02 06:39:46;90655.00;0.30;157.44;0.00;0.00;0.62;;;;;11.40;1.00;;;;;;2272337;61;1403;-86
2024/02/02 06:42:13;8951.00;0.03;16.13;0.00;0.00;0.62;;;;;11.40;1.00;;;;;;2272503;61;1480;-87
2024/02/02 06:44:40;16238.00;0.05;28.75;0.00;0.00;0.62;;;;;11.00;1.00;;;;;;2272522;61;2235;-86
2024/02/02 06:47:07;69276.00;0.23;120.51;0.00;0.00;0.62;;;;;10.80;1.00;;;;;;2272570;61;973;-87
2024/02/02 06:49:34;98860.00;0.33;171.60;0.00;0.00;0.62;;;;;10.60;1.00;;;;;;2272449;61;2020;-88
2024/02/02 06:52:01;47409.00;0.16;82.71;0.00;0.00;0.62;;;;;10.90;1.00;;;;;;2272616;61;1360;-91
2024/02/02 06:54:28;87203.00;0.29;151.48;18691.00;0.06;33.00;;;;;11.20;1.00;;;;;;2272479;61;1815;-87
2024/02/02 06:56:56;112094.00;0.37;194.44;0.00;0.00;0.62;;;;;11.70;1.00;;;;;;2272545;61;1012;-87
2024/02/02 06:59:23;119249.00;0.40;206.79;0.00;0.00;0.62;;;;;12.00;1.00;;;;;;2272488;61;1713;-88
2024/02/02 07:01:51;30754.00;0.10;53.89;0.00;0.00;0.62;;;;;12.20;1.00;;;;;;2272470;61;1311;-89
2024/02/02 07:04:18;49289.00;0.16;85.96;0.00;0.00;0.62;;;;;12.30;1.00;;;;;;2272433;61;1545;-87
2024/02/02 07:06:46;21316.00;0.07;37.55;0.00;0.00;0.62;;;;;11.90;1.00;;;;;;2272544;61;1098;-86
2024/02/02 07:09:29;99426.00;0.33;172.58;0.00;0.00;0.62;;;;;11.10;1.00;;;;;;2272369;61;1986;-85
2024/02/02 07:12:03;49917.00;0.17;87.04;0.00;0.00;0.62;;;;;10.30;1.00;;;;;;2272395;61;1353;-86
2024/02/02 07:14:47;119466.00;0.40;207.16;33407.00;0.11;58.48;;;;;10.30;1.00;;;;;;2272491;61;1076;-87
2024/02/02 07:17:34;243109.00;0.81;420.10;90146.00;0.30;156.56;;;;;10.20;1.00;;;;;;2272345;61;2377;-87
2024/02/02 07:20:03;515091.00;1.72;887.81;88211.00;0.29;153.22;;;;;10.20;1.00;;;;;;2272481;61;1091;-86
2024/02/02 07:22:37;33415.00;0.11;58.49;0.00;0.00;0.62;;;;;10.40;1.00;;;;;;2272421;61;1383;-86
2024/02/02 07:25:09;243328.00;0.81;420.48;73326.00;0.24;127.51;;;;;10.40;1.00;;;;;;2272505;61;1059;-88
2024/02/02 07:27:49;22825.00;0.08;40.16;0.00;0.00;0.62;;;;;10.60;1.00;;;;;;2272496;61;1165;-87
2024/02/02 07:30:51;329429.00;1.10;568.50;85951.00;0.29;149.32;;;;;11.00;1.00;;;;;;2272369;61;1923;-86
2024/02/02 07:33:27;395500.00;1.32;682.07;0.00;0.00;0.62;;;;;11.20;1.00;;;;;;2272436;61;1501;-86
2024/02/02 07:35:57;505365.00;1.68;871.06;26312.00;0.09;46.20;;;;;11.20;1.00;;;;;;2272418;61;894;-86
2024/02/02 07:38:59;445705.00;1.49;768.39;0.00;0.00;0.62;;;;;11.20;1.00;;;;;;2272452;61;1130;-88
2024/02/02 07:41:27;45838.00;0.15;79.99;0.00;0.00;0.62;;;;;11.10;1.00;;;;;;2271973;61;1098;-87
2024/02/02 07:43:58;73946.00;0.25;128.58;0.00;0.00;0.62;;;;;11.30;1.00;;;;;;2272395;61;1400;-90
2024/02/02 07:46:26;24543.00;0.08;43.14;0.00;0.00;0.62;;;;;11.40;1.00;;;;;;2272416;61;1060;-87
2024/02/02 07:48:54;4174.00;0.01;7.85;0.00;0.00;0.62;;;;;11.60;1.00;;;;;;2272321;61;1940;-87
2024/02/02 07:51:22;22953.00;0.08;40.38;0.00;0.00;0.62;;;;;11.70;1.00;;;;;;2272244;61;1575;-87
2024/02/02 07:53:50;131685.00;0.44;228.23;0.00;0.00;0.62;;;;;11.90;1.00;;;;;;2272149;61;1350;-88
2024/02/02 07:56:20;44118.00;0.15;77.01;0.00;0.00;0.62;;;;;12.20;1.00;;;;;;2272434;61;1051;-88
2024/02/02 07:58:47;146030.00;0.49;252.97;0.00;0.00;0.62;;;;;12.30;1.00;;;;;;2272313;61;1142;-88
2024/02/02 08:01:16;2217.00;0.01;4.46;0.00;0.00;0.62;;;;;12.20;1.00;;;;;;2272386;61;1068;-88
2024/02/02 08:03:43;43675.00;0.15;76.25;0.00;0.00;0.62;;;;;12.80;1.00;;;;;;2272327;61;1436;-87
2024/02/02 08:06:10;174118.00;0.58;301.36;25569.00;0.09;44.91;;;;;12.90;1.00;;;;;;2272296;61;1143;-88
2024/02/02 08:08:36;70133.00;0.23;121.99;0.00;0.00;0.62;;;;;12.70;1.00;;;;;;2272295;61;1141;-87
2024/02/02 08:11:04;0.00;0.00;0.62;0.00;0.00;0.62;;;;;12.60;1.00;;;;;;2272355;61;1991;-88
2024/02/02 08:13:31;78203.00;0.26;135.93;0.00;0.00;0.62;;;;;12.80;1.00;;;;;;2272192;61;2394;-88
2024/02/02 08:15:58;5692.00;0.02;10.48;0.00;0.00;0.62;;;;;12.60;1.00;;;;;;2272233;61;1030;-88
2024/02/02 08:18:28;23265.00;0.08;40.92;0.00;0.00;0.62;;;;;11.90;1.00;;;;;;2272317;61;1072;-88
2024/02/02 08:20:55;91651.00;0.31;159.16;0.00;0.00;0.62;;;;;11.60;1.00;;;;;;2272294;61;1013;-88
2024/02/02 08:23:22;75618.00;0.25;131.47;0.00;0.00;0.62;;;;;11.50;1.00;;;;;;2272311;61;1258;-86
2024/02/02 08:25:49;27717.00;0.09;48.63;0.00;0.00;0.62;;;;;11.50;1.00;;;;;;2272182;61;1689;-87
2024/02/02 08:28:16;134162.00;0.45;232.51;0.00;0.00;0.62;;;;;11.70;1.00;;;;;;2272209;61;1005;-87
2024/02/02 08:30:42;26087.00;0.09;45.81;0.00;0.00;0.62;;;;;11.20;1.00;;;;;;2272228;61;1926;-87
2024/02/02 08:33:09;238.00;0.00;1.03;0.00;0.00;0.62;;;;;11.20;1.00;;;;;;2272276;61;1380;-87
2024/02/02 08:35:38;42798.00;0.14;74.73;0.00;0.00;0.62;;;;;11.00;1.00;;;;;;2272188;61;1758;-86
2024/02/02 08:38:08;25812.00;0.09;45.33;0.00;0.00;0.62;;;;;11.20;1.00;;;;;;2272266;61;910;-88
2024/02/02 08:40:39;20121.00;0.07;35.48;0.00;0.00;0.62;;;;;11.20;1.00;;;;;;2272273;61;1147;-87
2024/02/02 08:43:10;180077.00;0.60;311.62;0.00;0.00;0.62;;;;;11.00;1.00;;;;;;2272245;61;1323;-87
2024/02/02 08:46:03;43738.00;0.15;76.36;0.00;0.00;0.62;;;;;10.70;1.00;;;;;;2272265;61;1107;-85
2024/02/02 08:48:44;182968.00;0.61;316.60;0.00;0.00;0.62;;;;;10.50;1.00;;;;;;2272079;61;1113;-87
2024/02/02 08:51:45;0.00;0.00;0.62;0.00;0.00;0.62;;;;;10.70;1.00;;;;;;2272150;61;2018;-86
2024/02/02 08:54:34;8982.00;0.03;16.19;0.00;0.00;0.62;;;;;11.00;1.00;;;;;;2272066;61;2425;-86
2024/02/02 08:57:35;727.00;0.00;1.88;0.00;0.00;0.62;;;;;11.10;1.00;;;;;;2272057;61;1043;-88
2024/02/02 09:00:13;26777.00;0.09;47.00;0.00;0.00;0.62;;;;;10.70;1.00;;;;;;2272267;61;1114;-88
2024/02/02 09:03:05;138173.00;0.46;239.42;0.00;0.00;0.62;;;;;10.90;1.00;;;;;;2271930;61;1298;-87
2024/02/02 09:05:53;15682.00;0.05;27.79;0.00;0.00;0.62;;;;;10.60;1.00;;;;;;2272156;61;990;-92
2024/02/02 09:08:31;89556.00;0.30;155.54;0.00;0.00;0.62;;;;;10.60;1.00;;;;;;2272062;61;1035;-87
2024/02/02 09:11:25;33920.00;0.11;59.37;0.00;0.00;0.62;;;;;10.80;1.00;;;;;;2272094;61;2009;-86
2024/02/02 09:14:19;155615.00;0.52;269.48;3813.00;0.01;7.23;;;;;11.00;1.00;;;;;;2271976;61;2417;-88
2024/02/02 09:16:50;478572.00;1.60;824.94;97335.00;0.32;168.97;;;;;11.10;1.00;;;;;;2265155;61;1198;-87
2024/02/02 09:19:28;439676.00;1.47;758.03;91492.00;0.30;158.88;;;;;11.00;1.00;;;;;;2272059;61;992;-86
2024/02/02 09:21:57;537579.00;1.79;926.55;69709.00;0.23;121.26;;;;;10.90;1.00;;;;;;2272112;61;1305;-89
2024/02/02 09:24:49;488559.00;1.63;842.13;99220.00;0.33;172.23;;;;;10.50;1.00;;;;;;2272092;61;1097;-87
2024/02/02 09:29:54;114900.00;0.38;199.28;0.00;0.00;0.62;;;;;10.50;1.00;;;;;;2274717;56;1883;-87
2024/02/02 09:32:21;379648.00;1.27;654.82;0.00;0.00;0.62;;;;;10.50;1.00;;;;;;2271900;61;1225;-86
2024/02/02 09:34:48;159812.00;0.53;276.72;0.00;0.00;0.62;;;;;10.80;1.00;;;;;;2271989;61;1765;-88
2024/02/02 09:37:22;284496.00;0.95;491.27;0.00;0.00;0.62;;;;;10.70;1.00;;;;;;2271968;61;1052;-89
2024/02/02 09:39:54;259318.00;0.86;447.98;0.00;0.00;0.62;;;;;10.50;1.00;;;;;;2272080;61;1071;-87
2024/02/02 09:42:46;336065.00;1.12;579.91;0.00;0.00;0.62;;;;;10.80;1.00;;;;;;2271983;61;1489;-88
2024/02/02 09:45:28;430198.00;1.43;741.73;0.00;0.00;0.62;;;;;10.80;1.00;;;;;;2272006;61;1174;-87
2024/02/02 09:48:09;313530.00;1.05;541.18;0.00;0.00;0.62;;;;;10.70;1.00;;;;;;2272035;61;961;-88
2024/02/02 09:50:50;496876.00;1.66;856.45;0.00;0.00;0.62;;;;;10.90;1.00;;;;;;2271801;61;2006;-89
2024/02/02 09:53:47;233705.00;0.78;403.92;0.00;0.00;0.62;;;;;10.90;1.00;;;;;;2271859;61;2121;-86
2024/02/02 09:56:23;122845.00;0.41;212.99;0.00;0.00;0.62;;;;;11.10;1.00;;;;;;2271968;61;1727;-87
2024/02/02 09:58:57;397778.00;1.33;685.99;19073.00;0.06;33.66;;;;;11.30;1.00;;;;;;2271984;61;926;-86
2024/02/02 10:01:57;542088.00;1.81;934.32;86307.00;0.29;149.93;;;;;11.10;1.00;;;;;;2271920;61;1147;-86
2024/02/02 10:04:40;91275.00;0.30;158.51;0.00;0.00;0.62;;;;;11.10;1.00;;;;;;2271970;61;1098;-86
2024/02/02 10:07:18;412024.00;1.37;710.48;0.00;0.00;0.62;;;;;11.10;1.00;;;;;;2271947;61;2370;-87
2024/02/02 10:10:13;371211.00;1.24;640.32;0.00;0.00;0.62;;;;;11.20;1.00;;;;;;2271887;61;1988;-89
2024/02/02 10:12:51;132795.00;0.44;230.15;0.00;0.00;0.62;;;;;11.20;1.00;;;;;;2272115;61;1359;-88
2024/02/02 10:15:47;100978.00;0.34;175.26;0.00;0.00;0.62;;;;;11.10;1.00;;;;;;2272695;61;1001;-87
2024/02/02 10:18:34;114183.00;0.38;198.05;0.00;0.00;0.62;;;;;10.80;1.00;;;;;;2272653;61;1056;-88
2024/02/02 10:21:08;68161.00;0.23;118.58;0.00;0.00;0.62;;;;;11.10;1.00;;;;;;2272579;61;1042;-87
2024/02/02 10:24:08;113427.00;0.38;196.74;0.00;0.00;0.62;;;;;11.10;1.00;;;;;;2272613;61;1706;-86